Time;durP1;ratioP1;P1;durP2;ratioP2;P2;SDS_P1;SDS_P2;PMS_P1;PMS_P2;Temp;Humidity;BMP_temperature;BMP_pressure;BME280_temperature;BME280_humidity;BME280_pressure;Samples;Min_cycle;Max_cycle;Signal;HPM_P1;HPM_P2
2021/03/21 00:01:17;;;;;;;13.10;8.35;;;13.80;62.90;;;;;;5125096;27;20075;-69
2021/03/21 00:03:43;;;;;;;9.57;5.05;;;13.60;63.30;;;;;;5123504;27;20035;-69
2021/03/21 00:06:09;;;;;;;17.48;8.80;;;13.20;63.60;;;;;;5127407;27;20043;-69
2021/03/21 00:08:35;;;;;;;14.55;8.18;;;13.10;65.20;;;;;;5125268;27;20095;-69
2021/03/21 00:11:05;;;;;;;16.42;9.63;;;13.30;66.10;;;;;;5126700;27;20075;-69
2021/03/21 00:13:33;;;;;;;11.75;7.70;;;13.70;65.80;;;;;;5126792;27;20086;-68
2021/03/21 00:16:00;;;;;;;14.13;8.57;;;14.20;64.60;;;;;;5127314;27;20035;-69
2021/03/21 00:18:32;;;;;;;15.43;8.23;;;14.50;63.70;;;;;;5121787;27;20031;-68
2021/03/21 00:20:58;;;;;;;17.02;7.22;;;14.70;62.90;;;;;;5126003;27;20501;-69
2021/03/21 00:23:24;;;;;;;14.82;8.30;;;14.90;62.00;;;;;;5123218;27;20046;-69
2021/03/21 00:25:50;;;;;;;16.83;7.90;;;15.00;61.30;;;;;;5127880;27;20039;-69
2021/03/21 00:28:22;;;;;;;16.25;8.30;;;15.00;61.00;;;;;;5126702;27;20053;-69
2021/03/21 00:30:49;;;;;;;14.13;8.50;;;15.00;61.30;;;;;;5126277;27;20047;-69
2021/03/21 00:33:18;;;;;;;15.07;8.10;;;14.90;61.20;;;;;;5125753;27;20527;-69
2021/03/21 00:35:43;;;;;;;13.30;7.78;;;14.80;61.10;;;;;;5123812;27;20156;-69
2021/03/21 00:38:18;;;;;;;15.23;9.77;;;14.70;60.90;;;;;;5125228;27;20114;-69
2021/03/21 00:40:44;;;;;;;14.35;9.05;;;14.60;61.60;;;;;;5126253;27;20364;-69
2021/03/21 00:43:10;;;;;;;12.30;5.82;;;14.70;61.80;;;;;;5124782;27;20043;-62
2021/03/21 00:45:36;;;;;;;15.27;8.05;;;14.80;61.00;;;;;;5123660;27;20043;-62
2021/03/21 00:48:02;;;;;;;13.90;8.18;;;14.80;60.80;;;;;;5125201;27;20035;-62
2021/03/21 00:50:33;;;;;;;13.60;8.20;;;15.00;60.90;;;;;;5124653;27;20099;-68
2021/03/21 00:52:59;;;;;;;14.45;7.03;;;15.10;60.20;;;;;;5126936;27;20035;-69
2021/03/21 00:55:26;;;;;;;15.32;7.18;;;15.20;59.60;;;;;;5123830;27;20041;-68
2021/03/21 00:57:54;;;;;;;15.32;6.10;;;14.90;59.90;;;;;;5126205;27;20055;-68
2021/03/21 01:00:36;;;;;;;15.63;8.15;;;14.80;60.00;;;;;;5124520;27;20444;-68
2021/03/21 01:03:03;;;;;;;12.73;7.53;;;14.60;60.70;;;;;;5125424;27;20081;-69
2021/03/21 01:05:31;;;;;;;14.48;7.35;;;14.70;61.20;;;;;;5128853;27;20121;-68
2021/03/21 01:07:57;;;;;;;16.75;8.60;;;14.90;60.70;;;;;;5127850;27;20126;-67
2021/03/21 01:10:29;;;;;;;13.90;7.88;;;15.00;60.40;;;;;;5125140;27;20033;-68
2021/03/21 01:12:56;;;;;;;14.35;8.05;;;15.00;60.40;;;;;;5126271;27;20039;-67
2021/03/21 01:15:24;;;;;;;11.82;6.40;;;15.10;60.40;;;;;;5124260;27;20051;-68
2021/03/21 01:17:50;;;;;;;11.98;6.85;;;15.10;59.70;;;;;;5122236;27;20890;-67
2021/03/21 01:20:20;;;;;;;12.48;7.82;;;15.00;59.50;;;;;;5123732;27;20044;-67
2021/03/21 01:22:47;;;;;;;12.05;6.85;;;14.70;60.00;;;;;;5127826;27;20035;-67
2021/03/21 01:25:14;;;;;;;12.00;6.88;;;14.70;60.40;;;;;;5122449;27;20074;-67
2021/03/21 01:27:40;;;;;;;11.90;7.05;;;14.80;60.10;;;;;;5129118;27;20066;-67
2021/03/21 01:30:07;;;;;;;12.43;7.05;;;14.70;60.30;;;;;;5122305;27;20059;-68
2021/03/21 01:32:33;;;;;;;9.45;5.65;;;14.70;60.50;;;;;;5121734;27;20058;-67
2021/03/21 01:34:59;;;;;;;10.30;5.80;;;14.70;60.00;;;;;;5125794;27;20128;-68
2021/03/21 01:37:25;;;;;;;10.65;5.95;;;14.60;60.00;;;;;;5131715;27;20038;-68
2021/03/21 01:39:51;;;;;;;11.55;6.88;;;14.60;60.00;;;;;;5128850;27;20047;-68
2021/03/21 01:42:17;;;;;;;11.43;5.93;;;14.60;60.30;;;;;;5125729;27;20111;-68
2021/03/21 01:44:44;;;;;;;11.35;6.68;;;14.70;60.40;;;;;;5127132;27;20475;-68
2021/03/21 01:47:35;;;;;;;12.60;7.65;;;14.80;60.20;;;;;;5127478;27;20047;-68
2021/03/21 01:50:22;;;;;;;12.80;6.50;;;14.80;60.00;;;;;;5130104;27;20042;-68
2021/03/21 01:52:48;;;;;;;11.10;6.65;;;14.80;60.30;;;;;;5144371;27;20043;-68
2021/03/21 01:55:15;;;;;;;10.25;5.55;;;14.90;60.30;;;;;;5127607;27;20040;-67
2021/03/21 01:57:42;;;;;;;10.38;5.40;;;15.00;59.80;;;;;;5128311;27;20027;-68
2021/03/21 02:00:09;;;;;;;11.60;5.97;;;15.10;59.30;;;;;;5127043;27;20043;-67
2021/03/21 02:02:35;;;;;;;12.20;6.25;;;15.10;59.10;;;;;;5125019;27;20052;-67
2021/03/21 02:05:01;;;;;;;11.20;5.85;;;15.10;59.10;;;;;;5127731;27;20061;-68
2021/03/21 02:07:55;;;;;;;11.60;5.60;;;15.10;58.90;;;;;;5127406;27;20039;-68
2021/03/21 02:10:24;;;;;;;;;;;15.00;58.90;;;;;;5126617;27;20050;-68
2021/03/21 02:13:25;;;;;;;9.50;5.55;;;15.00;59.00;;;;;;5126959;27;19946;-68
2021/03/21 02:16:06;;;;;;;10.07;5.78;;;15.00;59.20;;;;;;5128969;27;20073;-68
2021/03/21 02:18:58;;;;;;;12.50;4.30;;;14.90;59.20;;;;;;5129125;27;20042;-68
2021/03/21 02:21:43;;;;;;;12.05;6.32;;;14.90;59.20;;;;;;5124012;27;20031;-68
2021/03/21 02:24:18;;;;;;;10.38;5.55;;;15.00;59.10;;;;;;5127221;27;20035;-68
2021/03/21 02:27:03;;;;;;;9.35;5.70;;;15.00;59.10;;;;;;5125592;27;20384;-68
2021/03/21 02:30:10;;;;;;;11.73;6.32;;;15.10;59.10;;;;;;5128188;27;20125;-68
2021/03/21 02:33:03;;;;;;;10.10;5.25;;;15.20;59.10;;;;;;5094598;27;20058;-68
2021/03/21 02:35:40;;;;;;;15.88;6.00;;;15.30;58.90;;;;;;5122368;27;20069;-68
2021/03/21 02:38:20;;;;;;;10.75;5.95;;;15.30;58.70;;;;;;5128213;27;20038;-68
2021/03/21 02:40:50;;;;;;;12.98;5.25;;;15.20;58.60;;;;;;5128357;27;20033;-68
2021/03/21 02:43:40;;;;;;;8.75;4.03;;;15.10;58.60;;;;;;5128207;27;20043;-69
2021/03/21 02:46:24;;;;;;;8.48;5.05;;;15.00;58.40;;;;;;5130042;27;20122;-69
2021/03/21 02:49:00;;;;;;;10.63;4.80;;;14.90;58.60;;;;;;5122671;27;20383;-68
2021/03/21 02:51:34;;;;;;;9.63;4.55;;;14.80;59.00;;;;;;5124684;27;20470;-68
2021/03/21 02:54:14;;;;;;;7.82;4.22;;;14.80;58.70;;;;;;5127018;27;20043;-68
2021/03/21 02:56:42;;;;;;;13.98;4.75;;;14.90;58.60;;;;;;5125760;27;20039;-68
2021/03/21 02:59:26;;;;;;;8.60;4.55;;;15.00;58.70;;;;;;5128763;27;20110;-67
2021/03/21 03:01:56;;;;;;;7.45;4.15;;;15.10;58.50;;;;;;5127199;27;20543;-68
2021/03/21 03:04:39;;;;;;;10.25;4.07;;;15.00;58.30;;;;;;5126512;27;20044;-68
2021/03/21 03:07:12;;;;;;;8.80;4.50;;;15.00;58.20;;;;;;5126030;27;20100;-67
2021/03/21 03:09:48;;;;;;;7.82;4.32;;;14.90;58.60;;;;;;5123969;27;20035;-67
2021/03/21 03:12:20;;;;;;;7.85;3.58;;;14.90;58.70;;;;;;5126596;27;20075;-68
2021/03/21 03:14:47;;;;;;;8.75;4.72;;;15.00;58.60;;;;;;5127307;27;20493;-68
2021/03/21 03:17:24;;;;;;;8.50;3.85;;;15.00;58.50;;;;;;5126651;27;20555;-68
2021/03/21 03:20:03;;;;;;;10.13;4.03;;;15.10;58.50;;;;;;5123771;27;20061;-68
2021/03/21 03:22:44;;;;;;;10.38;4.10;;;15.00;59.00;;;;;;5127322;27;20038;-67
2021/03/21 03:25:28;;;;;;;8.82;4.22;;;15.00;58.60;;;;;;5123424;27;20099;-68
2021/03/21 03:28:19;;;;;;;12.80;4.03;;;15.20;58.30;;;;;;5129566;27;20466;-68
2021/03/21 03:30:51;;;;;;;11.80;4.75;;;15.30;57.60;;;;;;5124008;27;20051;-68
2021/03/21 03:33:19;;;;;;;8.02;3.47;;;15.10;57.90;;;;;;5123422;27;20046;-68
2021/03/21 03:35:45;;;;;;;9.52;4.07;;;15.20;58.00;;;;;;5122235;27;20134;-68
2021/03/21 03:38:12;;;;;;;6.82;3.80;;;15.30;57.90;;;;;;5126878;27;20059;-68
2021/03/21 03:40:40;;;;;;;10.10;3.60;;;15.40;57.60;;;;;;5126170;27;20077;-68
2021/03/21 03:43:23;;;;;;;10.15;4.00;;;15.50;57.40;;;;;;5126864;27;20037;-61
2021/03/21 03:46:20;;;;;;;11.93;3.88;;;15.40;57.20;;;;;;5124896;27;20612;-61
2021/03/21 03:49:18;;;;;;;10.05;3.92;;;15.10;57.30;;;;;;5076074;27;20130;-61
2021/03/21 03:51:54;;;;;;;9.88;4.03;;;14.90;58.20;;;;;;5126889;27;21024;-61
2021/03/21 03:54:52;;;;;;;15.40;2.65;;;14.90;58.10;;;;;;5125274;27;20030;-61
2021/03/21 03:57:26;;;;;;;11.30;3.40;;;14.70;56.90;;;;;;5082984;27;20053;-61
2021/03/21 03:59:57;;;;;;;8.57;4.05;;;14.30;58.00;;;;;;5123831;27;20052;-61
2021/03/21 04:02:34;;;;;;;15.15;3.20;;;14.20;59.40;;;;;;5127896;27;20035;-61
2021/03/21 04:05:20;;;;;;;10.65;3.80;;;14.20;58.50;;;;;;5125551;27;20076;-61
2021/03/21 04:08:11;;;;;;;11.25;2.97;;;14.10;58.90;;;;;;5128969;27;20031;-61
2021/03/21 04:10:45;;;;;;;7.05;3.08;;;13.80;58.40;;;;;;5125512;27;20043;-61
2021/03/21 04:13:41;;;;;;;10.90;2.92;;;13.70;59.70;;;;;;5115355;27;20092;-61
2021/03/21 04:16:13;;;;;;;11.65;3.05;;;13.70;60.00;;;;;;5124031;27;20039;-61
2021/03/21 04:19:06;;;;;;;14.02;3.33;;;13.70;59.70;;;;;;5122690;27;20126;-61
2021/03/21 04:21:46;;;;;;;9.88;3.38;;;13.70;58.10;;;;;;5115783;27;20039;-61
2021/03/21 04:24:47;;;;;;;8.68;3.10;;;13.60;60.00;;;;;;5124147;27;20030;-61
2021/03/21 04:27:22;;;;;;;10.20;3.33;;;13.70;60.00;;;;;;5120501;27;20567;-61
2021/03/21 04:29:58;;;;;;;11.52;3.38;;;13.80;59.30;;;;;;5127640;27;20058;-61
2021/03/21 04:32:38;;;;;;;6.22;2.92;;;13.70;59.60;;;;;;5124469;27;20487;-61
2021/03/21 04:35:18;;;;;;;11.10;3.97;;;13.70;60.00;;;;;;5128464;27;20046;-61
2021/03/21 04:37:49;;;;;;;7.50;2.95;;;13.70;59.20;;;;;;5125237;27;20037;-69
2021/03/21 04:40:17;;;;;;;6.85;2.33;;;13.70;59.90;;;;;;5123588;27;20478;-68
2021/03/21 04:42:48;;;;;;;9.07;2.97;;;13.90;59.60;;;;;;5125544;27;20039;-68
2021/03/21 04:45:27;;;;;;;12.10;3.17;;;14.00;59.00;;;;;;5123988;27;20039;-68
2021/03/21 04:48:03;;;;;;;12.95;2.65;;;13.90;58.40;;;;;;5125151;27;20054;-68
2021/03/21 04:50:31;;;;;;;7.70;2.90;;;13.80;57.50;;;;;;5125773;27;20482;-68
2021/03/21 04:53:15;;;;;;;8.68;2.83;;;13.60;58.70;;;;;;5116599;27;20031;-68
2021/03/21 04:55:46;;;;;;;12.57;2.70;;;13.70;56.90;;;;;;5115890;27;20050;-68
2021/03/21 04:58:24;;;;;;;12.93;3.25;;;13.30;57.60;;;;;;5126393;27;20039;-68
2021/03/21 05:00:50;;;;;;;13.68;3.25;;;12.90;57.10;;;;;;5123823;27;20151;-68
2021/03/21 05:04:03;;;;;;;13.88;3.38;;;12.50;57.40;;;;;;5125017;27;20497;-62
2021/03/21 05:06:59;;;;;;;7.88;2.90;;;12.20;57.90;;;;;;5080669;28;20032;-62
2021/03/21 05:09:45;;;;;;;15.70;3.00;;;12.30;60.60;;;;;;5082492;28;20092;-62
2021/03/21 05:12:15;;;;;;;13.38;3.05;;;12.50;60.50;;;;;;5122585;27;20073;-62
2021/03/21 05:14:54;;;;;;;9.77;2.83;;;12.70;60.20;;;;;;5127012;27;20039;-62
2021/03/21 05:17:38;;;;;;;18.65;3.13;;;12.80;61.00;;;;;;5133361;27;20062;-61
2021/03/21 05:20:23;;;;;;;13.68;3.13;;;12.80;59.10;;;;;;5130391;27;20071;-61
2021/03/21 05:22:53;;;;;;;11.48;3.58;;;12.50;58.80;;;;;;5128406;27;20047;-68
2021/03/21 05:25:18;;;;;;;13.27;3.63;;;12.60;60.20;;;;;;5127720;27;20040;-61
2021/03/21 05:27:55;;;;;;;16.27;3.40;;;12.60;59.50;;;;;;5128790;27;20042;-61
2021/03/21 05:30:29;;;;;;;12.30;3.30;;;12.60;59.50;;;;;;5127385;27;20062;-62
2021/03/21 05:32:55;;;;;;;13.88;4.13;;;12.60;59.70;;;;;;5130426;27;20040;-61
2021/03/21 05:35:37;;;;;;;12.80;3.40;;;12.40;59.50;;;;;;5129922;27;20046;-61
2021/03/21 05:38:21;;;;;;;17.92;4.93;;;12.40;60.80;;;;;;5125438;27;20032;-68
2021/03/21 05:41:25;;;;;;;10.60;3.47;;;12.40;60.90;;;;;;5129777;27;20717;-68
2021/03/21 05:44:13;;;;;;;10.60;3.13;;;12.80;61.40;;;;;;5126091;27;20099;-61
2021/03/21 05:46:58;;;;;;;23.92;4.72;;;13.20;60.60;;;;;;5128312;27;20043;-62
2021/03/21 05:49:33;;;;;;;16.60;4.20;;;13.50;57.50;;;;;;5130934;27;20039;-62
2021/03/21 05:52:14;;;;;;;27.05;5.15;;;13.20;57.40;;;;;;5129511;27;20391;-61
2021/03/21 05:54:55;;;;;;;20.45;3.83;;;13.00;56.50;;;;;;5127805;27;20035;-61
2021/03/21 05:57:56;;;;;;;24.00;4.82;;;12.50;57.30;;;;;;5128910;27;20035;-61
2021/03/21 06:01:00;;;;;;;12.55;3.15;;;12.10;58.50;;;;;;5129141;27;20035;-62
2021/03/21 06:03:44;;;;;;;19.00;4.28;;;12.00;58.50;;;;;;5106041;27;20072;-61
2021/03/21 06:06:31;;;;;;;16.35;3.75;;;12.10;59.60;;;;;;5126266;27;20050;-61
2021/03/21 06:09:23;;;;;;;21.17;4.82;;;12.20;59.80;;;;;;5131057;27;20126;-61
2021/03/21 06:11:58;;;;;;;31.17;5.47;;;12.30;59.70;;;;;;5128057;27;20065;-61
2021/03/21 06:14:50;;;;;;;21.35;4.90;;;12.00;57.70;;;;;;5126144;27;20032;-61
2021/03/21 06:17:21;;;;;;;23.08;4.75;;;11.80;57.80;;;;;;5128310;27;20070;-62
2021/03/21 06:20:06;;;;;;;15.35;4.32;;;11.80;58.90;;;;;;5129418;27;20539;-61
2021/03/21 06:22:40;;;;;;;21.45;4.38;;;11.90;60.00;;;;;;5127142;27;20043;-62
2021/03/21 06:25:44;;;;;;;30.17;6.00;;;11.90;59.60;;;;;;5128172;27;20027;-61
2021/03/21 06:28:39;;;;;;;22.20;5.00;;;12.10;57.30;;;;;;5131393;27;20038;-61
2021/03/21 06:31:18;;;;;;;22.13;4.60;;;12.20;58.00;;;;;;5123311;27;20128;-62
2021/03/21 06:34:10;;;;;;;12.40;3.15;;;12.30;58.30;;;;;;5125300;27;20042;-62
2021/03/21 06:36:46;;;;;;;14.20;3.67;;;12.30;59.60;;;;;;5127738;27;20047;-61
2021/03/21 06:39:28;;;;;;;13.10;3.70;;;12.50;59.40;;;;;;5122959;27;20050;-62
2021/03/21 06:42:09;;;;;;;18.23;4.38;;;12.50;59.80;;;;;;5130090;27;20031;-62
2021/03/21 06:44:59;;;;;;;17.30;4.35;;;12.60;59.40;;;;;;5124553;27;20046;-63
2021/03/21 06:47:43;;;;;;;14.98;4.07;;;12.60;58.40;;;;;;5124307;27;20040;-62
2021/03/21 06:50:27;;;;;;;26.60;5.40;;;12.30;58.90;;;;;;5126507;27;20757;-63
2021/03/21 06:52:59;;;;;;;19.30;4.43;;;12.20;58.20;;;;;;5124567;27;20039;-62
2021/03/21 06:55:31;;;;;;;15.53;3.67;;;12.00;59.10;;;;;;5129306;27;20122;-61
2021/03/21 06:58:30;;;;;;;14.93;4.63;;;12.00;60.30;;;;;;5123145;27;20297;-60
2021/03/21 07:01:17;;;;;;;15.68;5.03;;;12.00;60.10;;;;;;5125713;27;20054;-62
2021/03/21 07:04:03;;;;;;;24.77;5.90;;;12.00;60.90;;;;;;5126539;27;20502;-61
2021/03/21 07:07:02;;;;;;;19.42;4.88;;;12.00;58.90;;;;;;5128262;27;20175;-62
2021/03/21 07:09:49;;;;;;;28.88;6.10;;;11.90;59.40;;;;;;5129056;27;20063;-61
2021/03/21 07:12:55;;;;;;;29.90;6.35;;;11.50;57.20;;;;;;5125661;27;20059;-61
2021/03/21 07:15:49;;;;;;;32.95;6.28;;;11.10;58.50;;;;;;5126740;27;20050;-61
2021/03/21 07:18:34;;;;;;;;;;;10.70;58.10;;;;;;5126550;27;20494;-63
2021/03/21 07:21:12;;;;;;;34.38;6.10;;;10.30;58.90;;;;;;5135772;27;20116;-62
2021/03/21 07:24:05;;;;;;;31.55;5.90;;;10.30;59.80;;;;;;5127292;27;20503;-63
2021/03/21 07:27:04;;;;;;;34.97;7.15;;;10.20;59.80;;;;;;5127220;27;20390;-63
2021/03/21 07:29:52;;;;;;;26.15;6.18;;;10.30;59.80;;;;;;5127250;27;20076;-62
2021/03/21 07:32:40;;;;;;;33.58;6.10;;;10.30;59.30;;;;;;5124690;27;20114;-65
2021/03/21 07:35:28;;;;;;;36.75;6.65;;;10.00;58.70;;;;;;5123527;27;20561;-63
2021/03/21 07:38:18;;;;;;;27.77;5.88;;;9.60;58.80;;;;;;5123951;27;20035;-64
2021/03/21 07:40:49;;;;;;;33.08;6.93;;;9.40;59.70;;;;;;5124195;27;20035;-64
2021/03/21 07:43:34;;;;;;;33.10;6.13;;;9.20;60.40;;;;;;5125527;27;20121;-64
2021/03/21 07:46:35;;;;;;;37.65;6.85;;;9.00;60.80;;;;;;5126556;27;20708;-62
2021/03/21 07:49:57;;;;;;;41.38;6.80;;;8.90;61.20;;;;;;5127639;27;20035;-62
2021/03/21 07:52:50;;;;;;;42.28;6.57;;;8.80;61.30;;;;;;5040168;28;20052;-63
2021/03/21 07:55:26;;;;;;;38.65;7.10;;;8.70;61.90;;;;;;5123001;27;20035;-64
2021/03/21 07:58:02;;;;;;;37.60;6.72;;;8.60;62.00;;;;;;5127362;27;20096;-64
2021/03/21 08:00:28;;;;;;;34.17;6.18;;;8.70;62.30;;;;;;5140685;27;20035;-63
2021/03/21 08:03:21;;;;;;;33.80;6.50;;;8.60;62.20;;;;;;5128392;27;20060;-62
2021/03/21 08:05:51;;;;;;;35.83;7.43;;;8.70;62.90;;;;;;5118556;27;20052;-63
2021/03/21 08:08:23;;;;;;;36.97;6.72;;;8.60;62.50;;;;;;5127515;27;20564;-63
2021/03/21 08:10:53;;;;;;;39.05;6.78;;;8.60;62.60;;;;;;5126042;27;20039;-63
2021/03/21 08:13:21;;;;;;;42.22;7.20;;;8.60;62.70;;;;;;5123172;27;20490;-63
2021/03/21 08:15:47;;;;;;;43.67;7.70;;;8.70;63.00;;;;;;5126641;27;20054;-66
2021/03/21 08:18:20;;;;;;;41.85;7.65;;;8.70;63.00;;;;;;5126364;27;20113;-66
2021/03/21 08:21:02;;;;;;;38.63;6.85;;;8.80;63.00;;;;;;5123206;27;20036;-67
2021/03/21 08:23:31;;;;;;;28.35;6.28;;;8.80;62.90;;;;;;5117137;27;20057;-68
2021/03/21 08:26:03;;;;;;;35.42;6.30;;;8.80;62.90;;;;;;5117075;27;20051;-66
2021/03/21 08:28:40;;;;;;;37.47;7.30;;;8.80;62.80;;;;;;5129571;27;20035;-66
2021/03/21 08:31:09;;;;;;;40.05;7.43;;;8.70;63.00;;;;;;5122042;27;20044;-68
2021/03/21 08:33:36;;;;;;;36.90;6.65;;;8.70;62.80;;;;;;5126102;27;20043;-67
2021/03/21 08:36:24;;;;;;;39.90;6.68;;;8.70;62.40;;;;;;5129285;27;20147;-66
2021/03/21 08:39:14;;;;;;;39.85;6.38;;;8.60;62.40;;;;;;5125795;27;20164;-66
2021/03/21 08:41:59;;;;;;;40.33;8.32;;;8.60;62.20;;;;;;5126938;27;20106;-67
2021/03/21 08:44:46;;;;;;;37.25;6.35;;;8.60;62.70;;;;;;5128325;27;20051;-66
2021/03/21 08:47:26;;;;;;;34.65;7.68;;;8.60;61.90;;;;;;5125007;27;20050;-65
2021/03/21 08:49:53;;;;;;;35.90;6.78;;;8.60;62.00;;;;;;5126792;27;20035;-64
2021/03/21 08:52:31;;;;;;;41.25;7.28;;;8.50;61.90;;;;;;5129233;27;20114;-63
2021/03/21 08:54:59;;;;;;;41.90;7.30;;;8.60;61.90;;;;;;5125184;27;20031;-63
2021/03/21 08:57:35;;;;;;;34.78;6.47;;;8.60;62.20;;;;;;5125432;27;20486;-64
2021/03/21 09:00:36;;;;;;;39.63;6.53;;;8.60;62.10;;;;;;5126370;27;20032;-62
2021/03/21 09:03:26;;;;;;;31.55;5.93;;;8.60;62.80;;;;;;5045633;28;20126;-66
2021/03/21 09:05:56;;;;;;;37.92;7.20;;;8.70;63.10;;;;;;5120272;27;20046;-66
2021/03/21 09:08:28;;;;;;;46.03;8.30;;;8.60;63.10;;;;;;5129692;27;20061;-67
2021/03/21 09:10:59;;;;;;;41.00;6.90;;;8.60;63.00;;;;;;5129143;27;20040;-62
2021/03/21 09:13:28;;;;;;;36.72;6.50;;;8.60;63.00;;;;;;5123706;27;20124;-61
2021/03/21 09:15:54;;;;;;;35.00;6.13;;;8.60;63.10;;;;;;5123446;27;20042;-63
2021/03/21 09:18:24;;;;;;;38.25;7.97;;;8.70;62.90;;;;;;5130766;27;20035;-63
2021/03/21 09:21:14;;;;;;;42.88;8.07;;;8.60;62.50;;;;;;5126810;27;20035;-61
2021/03/21 09:23:57;;;;;;;44.83;6.75;;;8.60;62.50;;;;;;5126481;27;20046;-62
2021/03/21 09:26:26;;;;;;;35.90;6.13;;;8.70;63.10;;;;;;5131306;27;20143;-62
2021/03/21 09:28:55;;;;;;;39.97;7.25;;;8.60;62.20;;;;;;5125240;27;20085;-64
2021/03/21 09:31:23;;;;;;;27.35;5.97;;;8.60;62.00;;;;;;5125541;27;20043;-63
2021/03/21 09:34:31;;;;;;;34.72;7.18;;;8.60;61.60;;;;;;5126110;27;20039;-62
2021/03/21 09:37:09;;;;;;;37.72;6.88;;;8.60;61.00;;;;;;5125997;27;20047;-63
2021/03/21 09:39:48;;;;;;;35.80;7.13;;;8.60;61.10;;;;;;5122686;27;20038;-62
2021/03/21 09:42:14;;;;;;;34.63;6.10;;;8.50;60.80;;;;;;5127560;27;20585;-62
2021/03/21 09:44:44;;;;;;;39.92;7.03;;;8.50;60.80;;;;;;5129828;27;20038;-62
2021/03/21 09:47:12;;;;;;;39.20;7.20;;;8.50;60.90;;;;;;5126586;27;20482;-64
2021/03/21 09:49:56;;;;;;;37.60;7.40;;;8.60;61.20;;;;;;5116258;27;20650;-62
2021/03/21 09:52:21;;;;;;;32.17;6.10;;;8.60;61.50;;;;;;5118383;27;20041;-62
2021/03/21 09:55:20;;;;;;;32.88;6.30;;;8.60;61.90;;;;;;5114040;27;20055;-62
2021/03/21 09:58:24;;;;;;;41.53;6.47;;;8.60;61.50;;;;;;5117604;27;20039;-63
2021/03/21 10:01:15;;;;;;;30.55;5.55;;;8.60;60.90;;;;;;5116027;27;20035;-63
2021/03/21 10:03:46;;;;;;;37.97;7.30;;;8.60;61.40;;;;;;5118541;27;20046;-63
2021/03/21 10:06:38;;;;;;;37.17;6.68;;;8.60;61.80;;;;;;5118905;27;20436;-63
2021/03/21 10:09:18;;;;;;;48.90;8.32;;;8.60;61.80;;;;;;5118492;27;20050;-63
2021/03/21 10:11:47;;;;;;;37.15;6.43;;;8.60;62.10;;;;;;5118208;27;20092;-63
2021/03/21 10:14:22;;;;;;;43.83;7.40;;;8.60;62.00;;;;;;5120164;27;20043;-63
2021/03/21 10:16:49;;;;;;;36.22;7.53;;;8.60;61.70;;;;;;5119318;27;20047;-72
2021/03/21 10:19:38;;;;;;;42.38;8.55;;;8.60;61.80;;;;;;5121598;27;20039;-64
2021/03/21 10:22:25;;;;;;;38.72;7.03;;;8.70;62.10;;;;;;5120645;27;20047;-64
2021/03/21 10:25:13;;;;;;;40.67;6.90;;;8.70;62.10;;;;;;5120353;27;20272;-65
2021/03/21 10:27:43;;;;;;;38.53;6.60;;;8.70;61.80;;;;;;5131610;27;20116;-65
2021/03/21 10:30:12;;;;;;;43.70;7.40;;;8.80;62.00;;;;;;5119679;27;20086;-65
2021/03/21 10:32:41;;;;;;;35.22;6.40;;;8.80;61.60;;;;;;5120104;27;20051;-66
2021/03/21 10:35:35;;;;;;;39.78;8.10;;;8.80;61.30;;;;;;5120799;27;20134;-67
2021/03/21 10:38:07;;;;;;;42.78;7.22;;;8.80;61.40;;;;;;5108456;27;20043;-63
2021/03/21 10:40:36;;;;;;;45.25;7.57;;;8.80;61.80;;;;;;5118970;27;20054;-63
2021/03/21 10:43:10;;;;;;;30.38;6.28;;;8.80;61.80;;;;;;5119176;27;20658;-64
2021/03/21 10:45:36;;;;;;;36.97;7.03;;;8.90;61.40;;;;;;5118593;27;20077;-63
2021/03/21 10:48:01;;;;;;;34.60;7.20;;;9.10;60.90;;;;;;5119561;27;20126;-63
2021/03/21 10:50:27;;;;;;;35.28;7.68;;;9.30;60.40;;;;;;5117476;27;20050;-62
2021/03/21 10:53:21;;;;;;;39.30;6.95;;;9.40;60.00;;;;;;5118954;27;20043;-62
2021/03/21 10:56:20;;;;;;;36.78;6.75;;;9.40;59.50;;;;;;5118639;27;20107;-63
2021/03/21 10:58:45;;;;;;;36.17;6.38;;;9.40;59.30;;;;;;5118645;27;20048;-63
2021/03/21 11:01:20;;;;;;;27.17;6.57;;;9.50;59.50;;;;;;5118828;27;20649;-63
2021/03/21 11:03:58;;;;;;;37.65;6.60;;;9.50;59.50;;;;;;5116950;27;20088;-63
2021/03/21 11:06:29;;;;;;;37.53;7.05;;;9.60;58.90;;;;;;5118598;27;20032;-63
2021/03/21 11:09:07;;;;;;;43.13;7.57;;;9.50;59.00;;;;;;5119604;27;20121;-63
2021/03/21 11:11:37;;;;;;;38.88;7.07;;;9.50;58.90;;;;;;5120049;27;20374;-63
2021/03/21 11:14:21;;;;;;;34.92;6.75;;;9.50;58.70;;;;;;5118273;27;20041;-63
2021/03/21 11:16:54;;;;;;;32.40;5.47;;;9.60;58.30;;;;;;5125098;27;20046;-63
2021/03/21 11:19:23;;;;;;;34.45;6.18;;;9.50;58.30;;;;;;5125107;27;20027;-63
2021/03/21 11:21:49;;;;;;;35.83;6.57;;;9.50;58.40;;;;;;5125021;27;20031;-64
2021/03/21 11:24:30;;;;;;;33.22;7.55;;;9.40;58.20;;;;;;5124668;27;20896;-64
2021/03/21 11:26:57;;;;;;;36.50;6.43;;;9.40;57.90;;;;;;5122925;27;20035;-64
2021/03/21 11:29:37;;;;;;;38.35;8.20;;;9.30;58.10;;;;;;5127234;27;20427;-65
2021/03/21 11:32:13;;;;;;;30.48;6.22;;;9.30;58.60;;;;;;5128880;27;20108;-64
2021/03/21 11:34:39;;;;;;;32.83;6.22;;;9.30;59.00;;;;;;5127382;27;20036;-66
2021/03/21 11:37:11;;;;;;;35.40;6.45;;;9.50;61.80;;;;;;5128941;27;20121;-66
2021/03/21 11:39:36;;;;;;;27.00;6.65;;;9.90;62.10;;;;;;5128881;27;20030;-65
2021/03/21 11:42:23;;;;;;;37.80;6.82;;;10.20;60.60;;;;;;5127902;27;20043;-66
2021/03/21 11:44:52;;;;;;;42.97;7.30;;;10.40;59.40;;;;;;5129308;27;20086;-65
2021/03/21 11:47:30;;;;;;;35.03;6.68;;;10.50;58.90;;;;;;5127784;27;20038;-66
2021/03/21 11:49:58;;;;;;;32.05;6.40;;;10.60;60.50;;;;;;5126090;27;20447;-65
2021/03/21 11:52:25;;;;;;;31.75;7.78;;;10.70;60.10;;;;;;5126487;27;20107;-63
2021/03/21 11:54:53;;;;;;;39.75;7.70;;;10.70;61.20;;;;;;5125444;27;20113;-66
2021/03/21 11:57:58;;;;;;;33.67;7.15;;;10.80;60.40;;;;;;5114436;27;20077;-66
2021/03/21 12:00:26;;;;;;;36.45;7.30;;;10.70;58.20;;;;;;5097534;27;20042;-66
2021/03/21 12:03:00;;;;;;;39.63;8.65;;;10.50;58.50;;;;;;5127785;27;20041;-66
2021/03/21 12:05:37;;;;;;;30.58;6.78;;;10.50;58.80;;;;;;5129463;27;20036;-66
2021/03/21 12:08:23;;;;;;;33.65;7.35;;;10.50;59.10;;;;;;5127178;27;20046;-66
2021/03/21 12:10:52;;;;;;;32.53;6.97;;;10.50;58.10;;;;;;5127354;27;20402;-66
2021/03/21 12:13:35;;;;;;;33.45;6.32;;;10.50;58.40;;;;;;5126744;27;20035;-66
2021/03/21 12:16:03;;;;;;;28.83;5.85;;;10.50;57.30;;;;;;5125620;27;20065;-66
2021/03/21 12:18:34;;;;;;;34.40;6.10;;;10.40;57.80;;;;;;5126711;27;20037;-66
2021/03/21 12:21:11;;;;;;;29.35;6.43;;;10.40;57.70;;;;;;5129564;27;20953;-66
2021/03/21 12:23:42;;;;;;;34.50;6.70;;;10.40;58.10;;;;;;5127131;27;20036;-66
2021/03/21 12:26:19;;;;;;;36.30;7.80;;;10.50;58.60;;;;;;5126186;27;20338;-67
2021/03/21 12:28:55;;;;;;;31.02;6.68;;;10.50;57.90;;;;;;5121823;27;20044;-66
2021/03/21 12:31:42;;;;;;;33.17;6.93;;;10.40;57.80;;;;;;5117530;27;20081;-67
2021/03/21 12:34:32;;;;;;;35.35;5.82;;;10.40;57.80;;;;;;5124245;27;20043;-67
2021/03/21 12:37:02;;;;;;;28.15;6.40;;;10.40;57.60;;;;;;5127675;27;20046;-66
2021/03/21 12:39:32;;;;;;;27.80;5.45;;;10.40;59.30;;;;;;5130880;27;20064;-66
2021/03/21 12:41:58;;;;;;;25.10;5.93;;;10.40;58.70;;;;;;5125791;27;20062;-66
2021/03/21 12:44:30;;;;;;;28.90;6.43;;;10.40;57.70;;;;;;5123900;27;20035;-66
2021/03/21 12:47:16;;;;;;;43.60;6.40;;;10.30;57.40;;;;;;5126928;27;20039;-66
2021/03/21 12:49:46;;;;;;;32.35;6.82;;;10.20;56.40;;;;;;5125154;27;20041;-67
2021/03/21 12:52:13;;;;;;;28.48;6.35;;;10.20;57.00;;;;;;5124496;27;20914;-66
2021/03/21 12:54:41;;;;;;;26.27;6.45;;;10.10;56.80;;;;;;5127401;27;20065;-67
2021/03/21 12:57:11;;;;;;;34.58;6.20;;;10.10;57.00;;;;;;5130998;27;22248;-66
2021/03/21 12:59:42;;;;;;;29.25;5.93;;;10.00;57.30;;;;;;5126285;27;20039;-67
2021/03/21 13:02:21;;;;;;;28.15;7.13;;;10.20;58.00;;;;;;5127790;27;20038;-66
2021/03/21 13:04:47;;;;;;;33.75;6.68;;;10.20;57.90;;;;;;5127995;27;20034;-66
2021/03/21 13:07:13;;;;;;;33.47;7.03;;;10.20;57.20;;;;;;5143362;27;22320;-67
2021/03/21 13:09:39;;;;;;;30.50;5.43;;;10.10;56.90;;;;;;5128435;27;20080;-67
2021/03/21 13:12:06;;;;;;;18.85;4.97;;;10.10;57.80;;;;;;5119141;27;20035;-66
2021/03/21 13:14:32;;;;;;;27.50;5.07;;;10.10;58.80;;;;;;5130301;27;20045;-67
2021/03/21 13:16:57;;;;;;;33.95;6.45;;;10.20;58.00;;;;;;5128905;27;20031;-67
2021/03/21 13:19:23;;;;;;;22.25;5.60;;;10.20;57.40;;;;;;5112248;27;20034;-67
2021/03/21 13:21:49;;;;;;;23.17;4.70;;;10.20;58.60;;;;;;5122882;27;20042;-67
2021/03/21 13:24:15;;;;;;;28.13;5.57;;;10.40;58.90;;;;;;5127772;27;20106;-67
2021/03/21 13:26:41;;;;;;;29.42;6.15;;;10.50;57.60;;;;;;5115677;27;20047;-67
2021/03/21 13:29:06;;;;;;;21.15;5.47;;;10.40;56.90;;;;;;5115593;27;20043;-66
2021/03/21 13:31:32;;;;;;;28.65;6.95;;;10.30;59.40;;;;;;5130538;27;20046;-66